sensor_id;sensor_type;location;lat;lon;timestamp;P1;durP1;ratioP1;P2;durP2;ratioP2
76566;SDS011;65428;53.194;6.132;2024-01-15T00:02:09;11.53;;;1.10;;
76566;SDS011;65428;53.194;6.132;2024-01-15T00:04:38;10.40;;;1.10;;
76566;SDS011;65428;53.194;6.132;2024-01-15T00:07:07;11.77;;;1.05;;
76566;SDS011;65428;53.194;6.132;2024-01-15T00:09:33;10.60;;;1.48;;
76566;SDS011;65428;53.194;6.132;2024-01-15T00:11:59;11.70;;;1.20;;
76566;SDS011;65428;53.194;6.132;2024-01-15T00:14:25;14.65;;;1.30;;
76566;SDS011;65428;53.194;6.132;2024-01-15T00:16:51;11.43;;;1.63;;
76566;SDS011;65428;53.194;6.132;2024-01-15T00:19:20;12.18;;;1.70;;
76566;SDS011;65428;53.194;6.132;2024-01-15T00:21:47;14.02;;;1.20;;
76566;SDS011;65428;53.194;6.132;2024-01-15T00:24:13;15.20;;;1.67;;
76566;SDS011;65428;53.194;6.132;2024-01-15T00:26:39;13.30;;;1.40;;
76566;SDS011;65428;53.194;6.132;2024-01-15T00:29:06;15.07;;;1.97;;
76566;SDS011;65428;53.194;6.132;2024-01-15T00:31:33;13.30;;;1.40;;
76566;SDS011;65428;53.194;6.132;2024-01-15T00:34:01;16.00;;;1.60;;
76566;SDS011;65428;53.194;6.132;2024-01-15T00:36:27;13.68;;;2.08;;
76566;SDS011;65428;53.194;6.132;2024-01-15T00:38:54;13.80;;;1.80;;
76566;SDS011;65428;53.194;6.132;2024-01-15T00:41:22;13.18;;;1.38;;
76566;SDS011;65428;53.194;6.132;2024-01-15T00:43:48;11.13;;;0.83;;
76566;SDS011;65428;53.194;6.132;2024-01-15T00:46:16;11.20;;;1.17;;
76566;SDS011;65428;53.194;6.132;2024-01-15T00:48:42;7.82;;;0.60;;
76566;SDS011;65428;53.194;6.132;2024-01-15T00:51:08;9.65;;;0.60;;
76566;SDS011;65428;53.194;6.132;2024-01-15T00:53:34;8.10;;;0.80;;
76566;SDS011;65428;53.194;6.132;2024-01-15T00:55:59;10.57;;;0.60;;
76566;SDS011;65428;53.194;6.132;2024-01-15T00:58:25;7.37;;;0.50;;
76566;SDS011;65428;53.194;6.132;2024-01-15T01:00:51;7.30;;;0.50;;
76566;SDS011;65428;53.194;6.132;2024-01-15T01:03:17;10.03;;;0.70;;
76566;SDS011;65428;53.194;6.132;2024-01-15T01:05:43;9.20;;;1.00;;
76566;SDS011;65428;53.194;6.132;2024-01-15T01:08:10;14.80;;;0.90;;
76566;SDS011;65428;53.194;6.132;2024-01-15T01:10:35;12.25;;;0.98;;
76566;SDS011;65428;53.194;6.132;2024-01-15T01:13:01;11.23;;;1.25;;
76566;SDS011;65428;53.194;6.132;2024-01-15T01:15:29;11.43;;;0.90;;
76566;SDS011;65428;53.194;6.132;2024-01-15T01:17:55;9.77;;;0.55;;
76566;SDS011;65428;53.194;6.132;2024-01-15T01:20:20;7.78;;;0.47;;
76566;SDS011;65428;53.194;6.132;2024-01-15T01:22:46;6.20;;;0.55;;
76566;SDS011;65428;53.194;6.132;2024-01-15T01:25:12;4.68;;;0.40;;
76566;SDS011;65428;53.194;6.132;2024-01-15T01:27:38;4.97;;;0.30;;
76566;SDS011;65428;53.194;6.132;2024-01-15T01:30:03;5.13;;;0.30;;
76566;SDS011;65428;53.194;6.132;2024-01-15T01:32:36;8.57;;;0.32;;
76566;SDS011;65428;53.194;6.132;2024-01-15T01:35:02;8.13;;;0.40;;
76566;SDS011;65428;53.194;6.132;2024-01-15T01:37:27;8.52;;;0.45;;
76566;SDS011;65428;53.194;6.132;2024-01-15T01:39:53;6.73;;;0.30;;
76566;SDS011;65428;53.194;6.132;2024-01-15T01:42:19;8.93;;;0.50;;
76566;SDS011;65428;53.194;6.132;2024-01-15T01:44:44;8.30;;;0.60;;
76566;SDS011;65428;53.194;6.132;2024-01-15T01:47:10;7.07;;;0.70;;
76566;SDS011;65428;53.194;6.132;2024-01-15T01:49:36;8.73;;;0.60;;
76566;SDS011;65428;53.194;6.132;2024-01-15T01:52:02;10.77;;;0.80;;
76566;SDS011;65428;53.194;6.132;2024-01-15T01:54:31;11.85;;;1.23;;
76566;SDS011;65428;53.194;6.132;2024-01-15T01:56:57;12.52;;;1.27;;
76566;SDS011;65428;53.194;6.132;2024-01-15T01:59:25;13.88;;;1.00;;
76566;SDS011;65428;53.194;6.132;2024-01-15T02:01:52;10.50;;;1.05;;
76566;SDS011;65428;53.194;6.132;2024-01-15T02:04:19;13.20;;;1.35;;
76566;SDS011;65428;53.194;6.132;2024-01-15T02:06:48;15.98;;;1.38;;
76566;SDS011;65428;53.194;6.132;2024-01-15T02:09:14;17.02;;;1.23;;
76566;SDS011;65428;53.194;6.132;2024-01-15T02:11:41;15.40;;;1.50;;
76566;SDS011;65428;53.194;6.132;2024-01-15T02:14:07;17.05;;;1.67;;
76566;SDS011;65428;53.194;6.132;2024-01-15T02:16:34;20.15;;;1.98;;
76566;SDS011;65428;53.194;6.132;2024-01-15T02:19:00;13.50;;;1.30;;
76566;SDS011;65428;53.194;6.132;2024-01-15T02:21:25;15.85;;;1.70;;
76566;SDS011;65428;53.194;6.132;2024-01-15T02:23:53;12.27;;;1.23;;
76566;SDS011;65428;53.194;6.132;2024-01-15T02:26:20;8.85;;;0.70;;
76566;SDS011;65428;53.194;6.132;2024-01-15T02:28:47;7.85;;;0.50;;
76566;SDS011;65428;53.194;6.132;2024-01-15T02:31:13;6.88;;;0.77;;
76566;SDS011;65428;53.194;6.132;2024-01-15T02:33:39;7.35;;;0.50;;
76566;SDS011;65428;53.194;6.132;2024-01-15T02:36:07;8.25;;;0.45;;
76566;SDS011;65428;53.194;6.132;2024-01-15T02:38:33;9.68;;;0.80;;
76566;SDS011;65428;53.194;6.132;2024-01-15T02:40:58;9.48;;;0.57;;
76566;SDS011;65428;53.194;6.132;2024-01-15T02:43:24;9.20;;;0.60;;
76566;SDS011;65428;53.194;6.132;2024-01-15T02:45:50;10.03;;;0.80;;
76566;SDS011;65428;53.194;6.132;2024-01-15T02:48:15;9.95;;;0.85;;
76566;SDS011;65428;53.194;6.132;2024-01-15T02:50:41;9.43;;;0.80;;
76566;SDS011;65428;53.194;6.132;2024-01-15T02:53:07;10.35;;;0.75;;
76566;SDS011;65428;53.194;6.132;2024-01-15T02:55:32;10.13;;;0.90;;
76566;SDS011;65428;53.194;6.132;2024-01-15T02:57:58;14.60;;;1.10;;
76566;SDS011;65428;53.194;6.132;2024-01-15T03:00:24;10.47;;;1.10;;
76566;SDS011;65428;53.194;6.132;2024-01-15T03:02:50;12.60;;;0.70;;
76566;SDS011;65428;53.194;6.132;2024-01-15T03:05:16;14.02;;;1.40;;
76566;SDS011;65428;53.194;6.132;2024-01-15T03:07:42;14.32;;;1.23;;
76566;SDS011;65428;53.194;6.132;2024-01-15T03:10:08;11.65;;;0.90;;
76566;SDS011;65428;53.194;6.132;2024-01-15T03:12:34;13.68;;;1.27;;
76566;SDS011;65428;53.194;6.132;2024-01-15T03:15:00;14.85;;;1.38;;
76566;SDS011;65428;53.194;6.132;2024-01-15T03:17:26;13.43;;;1.00;;
76566;SDS011;65428;53.194;6.132;2024-01-15T03:19:51;10.52;;;1.20;;
76566;SDS011;65428;53.194;6.132;2024-01-15T03:22:17;14.20;;;1.43;;
76566;SDS011;65428;53.194;6.132;2024-01-15T03:24:43;15.80;;;1.53;;
76566;SDS011;65428;53.194;6.132;2024-01-15T03:27:09;17.73;;;1.92;;
76566;SDS011;65428;53.194;6.132;2024-01-15T03:29:34;12.97;;;1.70;;
76566;SDS011;65428;53.194;6.132;2024-01-15T03:32:00;9.05;;;0.70;;
76566;SDS011;65428;53.194;6.132;2024-01-15T03:34:26;8.98;;;0.65;;
76566;SDS011;65428;53.194;6.132;2024-01-15T03:36:51;7.75;;;0.68;;
76566;SDS011;65428;53.194;6.132;2024-01-15T03:39:17;7.83;;;0.67;;
76566;SDS011;65428;53.194;6.132;2024-01-15T03:41:43;6.43;;;0.43;;
76566;SDS011;65428;53.194;6.132;2024-01-15T03:44:08;6.20;;;0.40;;
76566;SDS011;65428;53.194;6.132;2024-01-15T03:46:34;5.25;;;0.32;;
76566;SDS011;65428;53.194;6.132;2024-01-15T03:49:00;10.50;;;0.80;;
76566;SDS011;65428;53.194;6.132;2024-01-15T03:51:26;10.50;;;0.90;;
76566;SDS011;65428;53.194;6.132;2024-01-15T03:53:51;16.97;;;1.00;;
76566;SDS011;65428;53.194;6.132;2024-01-15T03:56:17;11.55;;;1.00;;
76566;SDS011;65428;53.194;6.132;2024-01-15T03:58:43;19.65;;;1.58;;
76566;SDS011;65428;53.194;6.132;2024-01-15T04:01:09;15.43;;;1.77;;
76566;SDS011;65428;53.194;6.132;2024-01-15T04:03:35;15.98;;;1.20;;
76566;SDS011;65428;53.194;6.132;2024-01-15T04:06:01;11.02;;;1.00;;
76566;SDS011;65428;53.194;6.132;2024-01-15T04:08:26;8.18;;;0.80;;
76566;SDS011;65428;53.194;6.132;2024-01-15T04:10:52;7.80;;;0.55;;
76566;SDS011;65428;53.194;6.132;2024-01-15T04:13:18;6.43;;;0.50;;
76566;SDS011;65428;53.194;6.132;2024-01-15T04:15:43;5.23;;;0.20;;
76566;SDS011;65428;53.194;6.132;2024-01-15T04:18:09;4.47;;;0.30;;
76566;SDS011;65428;53.194;6.132;2024-01-15T04:20:35;3.63;;;0.20;;
76566;SDS011;65428;53.194;6.132;2024-01-15T04:23:00;3.50;;;0.25;;
76566;SDS011;65428;53.194;6.132;2024-01-15T04:25:26;5.68;;;0.30;;
76566;SDS011;65428;53.194;6.132;2024-01-15T04:27:52;2.22;;;0.10;;
76566;SDS011;65428;53.194;6.132;2024-01-15T04:30:18;10.37;;;1.10;;
76566;SDS011;65428;53.194;6.132;2024-01-15T04:32:43;5.23;;;0.20;;
76566;SDS011;65428;53.194;6.132;2024-01-15T04:35:09;8.18;;;0.85;;
76566;SDS011;65428;53.194;6.132;2024-01-15T04:37:35;6.20;;;0.57;;
76566;SDS011;65428;53.194;6.132;2024-01-15T04:40:00;11.83;;;1.30;;
76566;SDS011;65428;53.194;6.132;2024-01-15T04:42:29;6.05;;;0.57;;
76566;SDS011;65428;53.194;6.132;2024-01-15T04:44:54;7.28;;;0.40;;
76566;SDS011;65428;53.194;6.132;2024-01-15T04:47:20;10.27;;;0.80;;
76566;SDS011;65428;53.194;6.132;2024-01-15T04:49:45;13.40;;;1.17;;
76566;SDS011;65428;53.194;6.132;2024-01-15T04:52:11;10.70;;;1.02;;
76566;SDS011;65428;53.194;6.132;2024-01-15T04:54:37;12.23;;;1.10;;
76566;SDS011;65428;53.194;6.132;2024-01-15T04:57:03;13.03;;;1.53;;
76566;SDS011;65428;53.194;6.132;2024-01-15T04:59:29;11.52;;;1.10;;
76566;SDS011;65428;53.194;6.132;2024-01-15T05:01:54;10.18;;;1.30;;
76566;SDS011;65428;53.194;6.132;2024-01-15T05:04:20;11.93;;;1.10;;
76566;SDS011;65428;53.194;6.132;2024-01-15T05:06:46;10.63;;;1.05;;
76566;SDS011;65428;53.194;6.132;2024-01-15T05:09:12;13.73;;;1.20;;
76566;SDS011;65428;53.194;6.132;2024-01-15T05:11:38;11.32;;;1.00;;
76566;SDS011;65428;53.194;6.132;2024-01-15T05:14:04;13.75;;;1.40;;
76566;SDS011;65428;53.194;6.132;2024-01-15T05:16:30;9.87;;;0.90;;
76566;SDS011;65428;53.194;6.132;2024-01-15T05:18:56;11.38;;;0.75;;
76566;SDS011;65428;53.194;6.132;2024-01-15T05:21:21;12.50;;;1.30;;
76566;SDS011;65428;53.194;6.132;2024-01-15T05:23:47;10.20;;;1.17;;
76566;SDS011;65428;53.194;6.132;2024-01-15T05:26:13;12.03;;;1.40;;
76566;SDS011;65428;53.194;6.132;2024-01-15T05:28:40;14.43;;;1.40;;
76566;SDS011;65428;53.194;6.132;2024-01-15T05:31:07;10.75;;;1.48;;
76566;SDS011;65428;53.194;6.132;2024-01-15T05:33:32;9.40;;;1.10;;
76566;SDS011;65428;53.194;6.132;2024-01-15T05:35:58;13.30;;;1.23;;
76566;SDS011;65428;53.194;6.132;2024-01-15T05:38:24;13.50;;;1.05;;
76566;SDS011;65428;53.194;6.132;2024-01-15T05:40:49;17.00;;;1.67;;
76566;SDS011;65428;53.194;6.132;2024-01-15T05:43:15;15.50;;;2.05;;
76566;SDS011;65428;53.194;6.132;2024-01-15T05:45:42;16.27;;;2.10;;
76566;SDS011;65428;53.194;6.132;2024-01-15T05:48:08;12.00;;;1.35;;
76566;SDS011;65428;53.194;6.132;2024-01-15T05:50:34;11.82;;;1.02;;
76566;SDS011;65428;53.194;6.132;2024-01-15T05:53:00;14.90;;;1.58;;
76566;SDS011;65428;53.194;6.132;2024-01-15T05:55:25;13.30;;;1.10;;
76566;SDS011;65428;53.194;6.132;2024-01-15T05:57:51;15.68;;;1.27;;
76566;SDS011;65428;53.194;6.132;2024-01-15T06:00:17;13.20;;;1.30;;
76566;SDS011;65428;53.194;6.132;2024-01-15T06:02:43;16.23;;;1.33;;
76566;SDS011;65428;53.194;6.132;2024-01-15T06:05:09;14.63;;;1.08;;
76566;SDS011;65428;53.194;6.132;2024-01-15T06:07:35;12.63;;;1.30;;
76566;SDS011;65428;53.194;6.132;2024-01-15T06:10:03;14.00;;;1.20;;
76566;SDS011;65428;53.194;6.132;2024-01-15T06:12:31;13.13;;;1.40;;
76566;SDS011;65428;53.194;6.132;2024-01-15T06:14:58;14.30;;;1.80;;
76566;SDS011;65428;53.194;6.132;2024-01-15T06:17:24;14.43;;;1.73;;
76566;SDS011;65428;53.194;6.132;2024-01-15T06:19:50;15.57;;;1.20;;
76566;SDS011;65428;53.194;6.132;2024-01-15T06:22:15;15.27;;;1.87;;
76566;SDS011;65428;53.194;6.132;2024-01-15T06:24:41;14.80;;;1.40;;
76566;SDS011;65428;53.194;6.132;2024-01-15T06:27:08;11.68;;;0.75;;
76566;SDS011;65428;53.194;6.132;2024-01-15T06:29:36;12.50;;;1.17;;
76566;SDS011;65428;53.194;6.132;2024-01-15T06:32:03;11.15;;;1.40;;
76566;SDS011;65428;53.194;6.132;2024-01-15T06:34:29;12.67;;;0.97;;
76566;SDS011;65428;53.194;6.132;2024-01-15T06:36:55;12.10;;;1.00;;
76566;SDS011;65428;53.194;6.132;2024-01-15T06:39:21;11.70;;;1.10;;
76566;SDS011;65428;53.194;6.132;2024-01-15T06:41:46;10.48;;;1.15;;
76566;SDS011;65428;53.194;6.132;2024-01-15T06:44:12;9.02;;;0.98;;
76566;SDS011;65428;53.194;6.132;2024-01-15T06:46:47;10.20;;;0.85;;
76566;SDS011;65428;53.194;6.132;2024-01-15T06:49:13;8.27;;;0.88;;
76566;SDS011;65428;53.194;6.132;2024-01-15T06:51:39;8.82;;;0.90;;
76566;SDS011;65428;53.194;6.132;2024-01-15T06:54:04;8.50;;;0.60;;
76566;SDS011;65428;53.194;6.132;2024-01-15T06:56:31;8.25;;;0.60;;
76566;SDS011;65428;53.194;6.132;2024-01-15T06:58:56;8.25;;;0.63;;
76566;SDS011;65428;53.194;6.132;2024-01-15T07:01:22;7.18;;;0.70;;
76566;SDS011;65428;53.194;6.132;2024-01-15T07:03:48;10.85;;;0.57;;
76566;SDS011;65428;53.194;6.132;2024-01-15T07:06:14;11.55;;;1.17;;
76566;SDS011;65428;53.194;6.132;2024-01-15T07:08:40;10.02;;;1.55;;
76566;SDS011;65428;53.194;6.132;2024-01-15T07:11:06;10.67;;;1.10;;
76566;SDS011;65428;53.194;6.132;2024-01-15T07:13:32;13.10;;;0.83;;
76566;SDS011;65428;53.194;6.132;2024-01-15T07:15:58;11.80;;;1.03;;
76566;SDS011;65428;53.194;6.132;2024-01-15T07:18:24;11.07;;;1.10;;
76566;SDS011;65428;53.194;6.132;2024-01-15T07:20:50;12.60;;;0.90;;
76566;SDS011;65428;53.194;6.132;2024-01-15T07:23:16;11.85;;;1.17;;
76566;SDS011;65428;53.194;6.132;2024-01-15T07:25:42;10.32;;;0.90;;
76566;SDS011;65428;53.194;6.132;2024-01-15T07:28:08;8.60;;;0.60;;
76566;SDS011;65428;53.194;6.132;2024-01-15T07:30:34;7.10;;;0.60;;
76566;SDS011;65428;53.194;6.132;2024-01-15T07:33:00;6.85;;;0.45;;
76566;SDS011;65428;53.194;6.132;2024-01-15T07:35:26;5.30;;;0.30;;
76566;SDS011;65428;53.194;6.132;2024-01-15T07:37:52;5.63;;;0.27;;
76566;SDS011;65428;53.194;6.132;2024-01-15T07:40:17;4.60;;;0.30;;
76566;SDS011;65428;53.194;6.132;2024-01-15T07:42:43;4.78;;;0.60;;
76566;SDS011;65428;53.194;6.132;2024-01-15T07:45:10;6.97;;;0.50;;
76566;SDS011;65428;53.194;6.132;2024-01-15T07:47:36;5.15;;;0.20;;
76566;SDS011;65428;53.194;6.132;2024-01-15T07:50:02;7.88;;;0.20;;
76566;SDS011;65428;53.194;6.132;2024-01-15T07:52:28;4.15;;;0.20;;
76566;SDS011;65428;53.194;6.132;2024-01-15T07:54:53;4.50;;;0.30;;
76566;SDS011;65428;53.194;6.132;2024-01-15T07:57:20;6.20;;;0.27;;
76566;SDS011;65428;53.194;6.132;2024-01-15T07:59:45;6.00;;;0.77;;
76566;SDS011;65428;53.194;6.132;2024-01-15T08:02:11;5.47;;;0.57;;
76566;SDS011;65428;53.194;6.132;2024-01-15T08:04:37;5.78;;;0.20;;
76566;SDS011;65428;53.194;6.132;2024-01-15T08:07:05;8.20;;;0.40;;
76566;SDS011;65428;53.194;6.132;2024-01-15T08:09:33;4.80;;;0.38;;
76566;SDS011;65428;53.194;6.132;2024-01-15T08:11:58;4.13;;;0.30;;
76566;SDS011;65428;53.194;6.132;2024-01-15T08:14:24;2.30;;;0.20;;
76566;SDS011;65428;53.194;6.132;2024-01-15T08:16:50;4.05;;;0.10;;
76566;SDS011;65428;53.194;6.132;2024-01-15T08:19:18;3.15;;;0.30;;
76566;SDS011;65428;53.194;6.132;2024-01-15T08:21:45;3.30;;;0.20;;
76566;SDS011;65428;53.194;6.132;2024-01-15T08:24:10;5.13;;;0.40;;
76566;SDS011;65428;53.194;6.132;2024-01-15T08:26:36;3.55;;;0.20;;
76566;SDS011;65428;53.194;6.132;2024-01-15T08:29:02;6.03;;;0.43;;
76566;SDS011;65428;53.194;6.132;2024-01-15T08:31:28;5.93;;;0.40;;
76566;SDS011;65428;53.194;6.132;2024-01-15T08:33:54;7.47;;;0.40;;
76566;SDS011;65428;53.194;6.132;2024-01-15T08:36:29;5.75;;;0.32;;
76566;SDS011;65428;53.194;6.132;2024-01-15T08:38:56;5.00;;;0.40;;
76566;SDS011;65428;53.194;6.132;2024-01-15T08:41:21;4.30;;;0.20;;
76566;SDS011;65428;53.194;6.132;2024-01-15T08:43:48;5.17;;;0.37;;
76566;SDS011;65428;53.194;6.132;2024-01-15T08:46:14;7.13;;;0.47;;
76566;SDS011;65428;53.194;6.132;2024-01-15T08:48:39;7.47;;;0.83;;
76566;SDS011;65428;53.194;6.132;2024-01-15T08:51:05;9.65;;;0.75;;
76566;SDS011;65428;53.194;6.132;2024-01-15T08:53:31;7.65;;;0.60;;
76566;SDS011;65428;53.194;6.132;2024-01-15T08:55:57;11.17;;;0.73;;
76566;SDS011;65428;53.194;6.132;2024-01-15T08:58:23;7.90;;;0.60;;
76566;SDS011;65428;53.194;6.132;2024-01-15T09:00:49;10.60;;;0.60;;
76566;SDS011;65428;53.194;6.132;2024-01-15T09:03:16;7.65;;;0.77;;
76566;SDS011;65428;53.194;6.132;2024-01-15T09:05:41;10.40;;;0.70;;
76566;SDS011;65428;53.194;6.132;2024-01-15T09:08:08;8.13;;;0.93;;
76566;SDS011;65428;53.194;6.132;2024-01-15T09:10:33;11.48;;;1.05;;
76566;SDS011;65428;53.194;6.132;2024-01-15T09:12:59;12.48;;;1.77;;
76566;SDS011;65428;53.194;6.132;2024-01-15T09:15:25;8.60;;;1.02;;
76566;SDS011;65428;53.194;6.132;2024-01-15T09:17:51;13.40;;;1.50;;
76566;SDS011;65428;53.194;6.132;2024-01-15T09:20:22;9.48;;;0.98;;
76566;SDS011;65428;53.194;6.132;2024-01-15T09:22:52;12.83;;;1.00;;
76566;SDS011;65428;53.194;6.132;2024-01-15T09:25:19;14.35;;;1.20;;
76566;SDS011;65428;53.194;6.132;2024-01-15T09:27:44;8.67;;;0.87;;
76566;SDS011;65428;53.194;6.132;2024-01-15T09:30:13;11.52;;;0.88;;
76566;SDS011;65428;53.194;6.132;2024-01-15T09:32:39;13.18;;;1.30;;
76566;SDS011;65428;53.194;6.132;2024-01-15T09:35:05;12.37;;;1.40;;
76566;SDS011;65428;53.194;6.132;2024-01-15T09:37:31;11.98;;;0.95;;
76566;SDS011;65428;53.194;6.132;2024-01-15T09:39:57;13.67;;;1.50;;
76566;SDS011;65428;53.194;6.132;2024-01-15T09:42:23;10.50;;;1.17;;
76566;SDS011;65428;53.194;6.132;2024-01-15T09:44:51;13.43;;;1.33;;
76566;SDS011;65428;53.194;6.132;2024-01-15T09:47:20;10.57;;;1.10;;
76566;SDS011;65428;53.194;6.132;2024-01-15T09:49:47;12.33;;;1.33;;
76566;SDS011;65428;53.194;6.132;2024-01-15T09:52:14;9.32;;;0.80;;
76566;SDS011;65428;53.194;6.132;2024-01-15T09:54:46;9.00;;;0.60;;
76566;SDS011;65428;53.194;6.132;2024-01-15T09:57:12;9.40;;;0.70;;
76566;SDS011;65428;53.194;6.132;2024-01-15T09:59:38;11.40;;;0.90;;
76566;SDS011;65428;53.194;6.132;2024-01-15T10:02:07;7.43;;;0.65;;
76566;SDS011;65428;53.194;6.132;2024-01-15T10:04:34;5.95;;;0.30;;
76566;SDS011;65428;53.194;6.132;2024-01-15T10:07:00;6.60;;;0.40;;
76566;SDS011;65428;53.194;6.132;2024-01-15T10:09:26;8.18;;;0.60;;
76566;SDS011;65428;53.194;6.132;2024-01-15T10:11:52;8.65;;;0.60;;
76566;SDS011;65428;53.194;6.132;2024-01-15T10:14:18;9.07;;;0.95;;
76566;SDS011;65428;53.194;6.132;2024-01-15T10:16:44;7.53;;;0.70;;
76566;SDS011;65428;53.194;6.132;2024-01-15T10:19:10;6.03;;;0.30;;
76566;SDS011;65428;53.194;6.132;2024-01-15T10:21:36;5.17;;;0.50;;
76566;SDS011;65428;53.194;6.132;2024-01-15T10:24:02;5.20;;;0.35;;
76566;SDS011;65428;53.194;6.132;2024-01-15T10:26:29;7.05;;;0.85;;
76566;SDS011;65428;53.194;6.132;2024-01-15T10:28:55;7.53;;;0.43;;
76566;SDS011;65428;53.194;6.132;2024-01-15T10:31:21;10.37;;;0.50;;
76566;SDS011;65428;53.194;6.132;2024-01-15T10:33:50;6.45;;;0.43;;
76566;SDS011;65428;53.194;6.132;2024-01-15T10:36:16;9.77;;;0.73;;
76566;SDS011;65428;53.194;6.132;2024-01-15T10:38:44;7.38;;;0.50;;
76566;SDS011;65428;53.194;6.132;2024-01-15T10:41:10;7.53;;;0.50;;
76566;SDS011;65428;53.194;6.132;2024-01-15T10:43:36;6.70;;;0.60;;
76566;SDS011;65428;53.194;6.132;2024-01-15T10:46:02;6.97;;;0.32;;
76566;SDS011;65428;53.194;6.132;2024-01-15T10:48:28;7.25;;;0.68;;
76566;SDS011;65428;53.194;6.132;2024-01-15T10:50:56;9.63;;;0.70;;
76566;SDS011;65428;53.194;6.132;2024-01-15T10:53:24;8.75;;;0.60;;
76566;SDS011;65428;53.194;6.132;2024-01-15T10:55:50;10.43;;;0.43;;
76566;SDS011;65428;53.194;6.132;2024-01-15T10:58:17;8.35;;;0.68;;
76566;SDS011;65428;53.194;6.132;2024-01-15T11:00:43;9.52;;;0.47;;
76566;SDS011;65428;53.194;6.132;2024-01-15T11:03:10;6.10;;;0.30;;
76566;SDS011;65428;53.194;6.132;2024-01-15T11:05:39;7.30;;;0.40;;
76566;SDS011;65428;53.194;6.132;2024-01-15T11:08:08;7.80;;;0.40;;
76566;SDS011;65428;53.194;6.132;2024-01-15T11:10:38;6.93;;;0.30;;
76566;SDS011;65428;53.194;6.132;2024-01-15T11:13:20;4.57;;;0.40;;
76566;SDS011;65428;53.194;6.132;2024-01-15T11:16:03;6.45;;;0.38;;
76566;SDS011;65428;53.194;6.132;2024-01-15T11:23:44;3.05;;;0.17;;
76566;SDS011;65428;53.194;6.132;2024-01-15T11:26:46;2.85;;;0.15;;
76566;SDS011;65428;53.194;6.132;2024-01-15T11:29:09;4.18;;;0.28;;
76566;SDS011;65428;53.194;6.132;2024-01-15T11:32:09;3.50;;;0.30;;
76566;SDS011;65428;53.194;6.132;2024-01-15T11:34:57;5.63;;;0.40;;
76566;SDS011;65428;53.194;6.132;2024-01-15T11:37:27;6.32;;;0.40;;
76566;SDS011;65428;53.194;6.132;2024-01-15T11:40:12;4.55;;;0.40;;
76566;SDS011;65428;53.194;6.132;2024-01-15T11:42:39;6.70;;;0.47;;
76566;SDS011;65428;53.194;6.132;2024-01-15T11:45:05;5.10;;;0.30;;
76566;SDS011;65428;53.194;6.132;2024-01-15T11:47:48;7.03;;;0.70;;
76566;SDS011;65428;53.194;6.132;2024-01-15T11:50:25;4.82;;;0.47;;
76566;SDS011;65428;53.194;6.132;2024-01-15T11:53:01;8.38;;;0.80;;
76566;SDS011;65428;53.194;6.132;2024-01-15T11:55:35;6.50;;;0.40;;
76566;SDS011;65428;53.194;6.132;2024-01-15T11:58:09;10.43;;;1.02;;
76566;SDS011;65428;53.194;6.132;2024-01-15T12:00:38;5.72;;;0.57;;
76566;SDS011;65428;53.194;6.132;2024-01-15T12:03:09;9.38;;;0.60;;
76566;SDS011;65428;53.194;6.132;2024-01-15T12:05:36;8.47;;;0.60;;
76566;SDS011;65428;53.194;6.132;2024-01-15T12:08:03;8.75;;;0.85;;
76566;SDS011;65428;53.194;6.132;2024-01-15T12:10:35;8.63;;;0.60;;
76566;SDS011;65428;53.194;6.132;2024-01-15T12:13:15;11.95;;;1.80;;
76566;SDS011;65428;53.194;6.132;2024-01-15T12:15:43;9.70;;;1.00;;
76566;SDS011;65428;53.194;6.132;2024-01-15T12:18:10;7.45;;;0.80;;
76566;SDS011;65428;53.194;6.132;2024-01-15T12:20:40;8.80;;;0.73;;
76566;SDS011;65428;53.194;6.132;2024-01-15T12:23:07;13.57;;;1.30;;
76566;SDS011;65428;53.194;6.132;2024-01-15T12:25:33;10.68;;;0.98;;
76566;SDS011;65428;53.194;6.132;2024-01-15T12:28:00;7.97;;;1.00;;
76566;SDS011;65428;53.194;6.132;2024-01-15T12:30:29;11.43;;;0.73;;
76566;SDS011;65428;53.194;6.132;2024-01-15T12:33:00;7.03;;;0.52;;
76566;SDS011;65428;53.194;6.132;2024-01-15T12:35:28;11.50;;;0.85;;
76566;SDS011;65428;53.194;6.132;2024-01-15T12:37:55;9.90;;;0.63;;
76566;SDS011;65428;53.194;6.132;2024-01-15T12:40:21;10.88;;;1.02;;
76566;SDS011;65428;53.194;6.132;2024-01-15T12:42:48;7.53;;;0.90;;
76566;SDS011;65428;53.194;6.132;2024-01-15T12:45:14;10.98;;;1.27;;
76566;SDS011;65428;53.194;6.132;2024-01-15T12:47:40;6.40;;;1.05;;
76566;SDS011;65428;53.194;6.132;2024-01-15T12:50:07;7.53;;;0.60;;
76566;SDS011;65428;53.194;6.132;2024-01-15T12:52:34;7.40;;;0.50;;
76566;SDS011;65428;53.194;6.132;2024-01-15T12:54:59;9.52;;;0.50;;
76566;SDS011;65428;53.194;6.132;2024-01-15T12:57:25;9.53;;;0.70;;
76566;SDS011;65428;53.194;6.132;2024-01-15T12:59:51;7.90;;;0.70;;
76566;SDS011;65428;53.194;6.132;2024-01-15T13:02:17;7.50;;;0.70;;
76566;SDS011;65428;53.194;6.132;2024-01-15T13:04:43;6.00;;;0.30;;
76566;SDS011;65428;53.194;6.132;2024-01-15T13:07:09;8.03;;;0.67;;
76566;SDS011;65428;53.194;6.132;2024-01-15T13:09:34;7.87;;;0.90;;
76566;SDS011;65428;53.194;6.132;2024-01-15T13:12:03;9.23;;;0.80;;
76566;SDS011;65428;53.194;6.132;2024-01-15T13:14:30;10.07;;;0.63;;
76566;SDS011;65428;53.194;6.132;2024-01-15T13:16:56;8.07;;;0.50;;
76566;SDS011;65428;53.194;6.132;2024-01-15T13:19:23;8.30;;;0.50;;
76566;SDS011;65428;53.194;6.132;2024-01-15T13:21:49;14.10;;;1.20;;
76566;SDS011;65428;53.194;6.132;2024-01-15T13:24:16;12.73;;;1.23;;
76566;SDS011;65428;53.194;6.132;2024-01-15T13:26:45;11.45;;;1.25;;
76566;SDS011;65428;53.194;6.132;2024-01-15T13:29:10;11.07;;;0.83;;
76566;SDS011;65428;53.194;6.132;2024-01-15T13:31:36;12.37;;;1.10;;
76566;SDS011;65428;53.194;6.132;2024-01-15T13:34:03;11.63;;;0.80;;
76566;SDS011;65428;53.194;6.132;2024-01-15T13:36:29;12.57;;;1.38;;
76566;SDS011;65428;53.194;6.132;2024-01-15T13:38:54;12.68;;;1.27;;
76566;SDS011;65428;53.194;6.132;2024-01-15T13:41:20;15.30;;;1.60;;
76566;SDS011;65428;53.194;6.132;2024-01-15T13:43:53;18.45;;;2.78;;
76566;SDS011;65428;53.194;6.132;2024-01-15T13:46:25;14.55;;;1.15;;
76566;SDS011;65428;53.194;6.132;2024-01-15T13:48:51;13.02;;;1.30;;
76566;SDS011;65428;53.194;6.132;2024-01-15T13:51:18;8.15;;;0.95;;
76566;SDS011;65428;53.194;6.132;2024-01-15T13:53:44;7.80;;;1.02;;
76566;SDS011;65428;53.194;6.132;2024-01-15T13:56:09;9.00;;;0.90;;
76566;SDS011;65428;53.194;6.132;2024-01-15T13:58:35;12.98;;;0.88;;
76566;SDS011;65428;53.194;6.132;2024-01-15T14:01:02;10.00;;;0.80;;
76566;SDS011;65428;53.194;6.132;2024-01-15T14:03:29;10.65;;;0.82;;
76566;SDS011;65428;53.194;6.132;2024-01-15T14:05:55;10.47;;;1.07;;
76566;SDS011;65428;53.194;6.132;2024-01-15T14:08:20;9.90;;;0.93;;
76566;SDS011;65428;53.194;6.132;2024-01-15T14:10:46;10.30;;;1.10;;
76566;SDS011;65428;53.194;6.132;2024-01-15T14:13:12;9.70;;;0.85;;
76566;SDS011;65428;53.194;6.132;2024-01-15T14:15:37;9.13;;;1.00;;
76566;SDS011;65428;53.194;6.132;2024-01-15T14:18:03;12.60;;;1.50;;
76566;SDS011;65428;53.194;6.132;2024-01-15T14:20:29;8.50;;;1.02;;
76566;SDS011;65428;53.194;6.132;2024-01-15T14:22:55;12.65;;;0.82;;
76566;SDS011;65428;53.194;6.132;2024-01-15T14:25:21;9.60;;;0.98;;
76566;SDS011;65428;53.194;6.132;2024-01-15T14:27:47;10.63;;;0.60;;
76566;SDS011;65428;53.194;6.132;2024-01-15T14:30:13;8.65;;;0.80;;
76566;SDS011;65428;53.194;6.132;2024-01-15T14:32:41;10.23;;;1.00;;
76566;SDS011;65428;53.194;6.132;2024-01-15T14:35:07;9.48;;;1.00;;
76566;SDS011;65428;53.194;6.132;2024-01-15T14:37:39;2.38;;;0.20;;
76566;SDS011;65428;53.194;6.132;2024-01-15T14:40:07;3.40;;;0.20;;
76566;SDS011;65428;53.194;6.132;2024-01-15T14:42:33;6.53;;;0.37;;
76566;SDS011;65428;53.194;6.132;2024-01-15T14:45:00;4.10;;;0.20;;